sensor_id;sensor_type;location;lat;lon;timestamp;temperature;humidity
782;DHT22;374;52.568;13.402;2023-05-19T00:00:42;12.50;73.20
782;DHT22;374;52.568;13.402;2023-05-19T00:03:09;12.40;73.20
782;DHT22;374;52.568;13.402;2023-05-19T00:05:38;12.40;73.40
782;DHT22;374;52.568;13.402;2023-05-19T00:08:10;12.40;73.50
782;DHT22;374;52.568;13.402;2023-05-19T00:10:36;12.40;73.70
782;DHT22;374;52.568;13.402;2023-05-19T00:13:02;12.30;73.70
782;DHT22;374;52.568;13.402;2023-05-19T00:15:28;12.30;73.80
782;DHT22;374;52.568;13.402;2023-05-19T00:17:53;12.20;73.80
782;DHT22;374;52.568;13.402;2023-05-19T00:20:20;12.30;74.00
782;DHT22;374;52.568;13.402;2023-05-19T00:22:46;12.30;73.80
782;DHT22;374;52.568;13.402;2023-05-19T00:25:11;12.20;74.00
782;DHT22;374;52.568;13.402;2023-05-19T00:27:37;12.20;73.90
782;DHT22;374;52.568;13.402;2023-05-19T00:30:02;12.20;74.00
782;DHT22;374;52.568;13.402;2023-05-19T00:32:28;12.20;74.10
782;DHT22;374;52.568;13.402;2023-05-19T00:34:53;12.20;74.10
782;DHT22;374;52.568;13.402;2023-05-19T00:37:19;12.10;74.20
782;DHT22;374;52.568;13.402;2023-05-19T00:39:44;12.10;74.50
782;DHT22;374;52.568;13.402;2023-05-19T00:42:10;12.10;74.40
782;DHT22;374;52.568;13.402;2023-05-19T00:44:39;12.00;74.40
782;DHT22;374;52.568;13.402;2023-05-19T00:47:06;12.00;74.50
782;DHT22;374;52.568;13.402;2023-05-19T00:49:31;12.00;74.50
782;DHT22;374;52.568;13.402;2023-05-19T00:51:57;12.00;74.40
782;DHT22;374;52.568;13.402;2023-05-19T00:54:23;12.00;74.70
782;DHT22;374;52.568;13.402;2023-05-19T00:56:49;12.00;74.70
782;DHT22;374;52.568;13.402;2023-05-19T00:59:15;11.90;74.60
782;DHT22;374;52.568;13.402;2023-05-19T01:01:41;11.90;74.60
782;DHT22;374;52.568;13.402;2023-05-19T01:04:06;11.90;74.80
782;DHT22;374;52.568;13.402;2023-05-19T01:06:35;11.90;74.60
782;DHT22;374;52.568;13.402;2023-05-19T01:09:03;11.90;74.70
782;DHT22;374;52.568;13.402;2023-05-19T01:11:29;11.80;74.70
782;DHT22;374;52.568;13.402;2023-05-19T01:13:55;11.80;74.90
782;DHT22;374;52.568;13.402;2023-05-19T01:16:25;11.80;75.00
782;DHT22;374;52.568;13.402;2023-05-19T01:22:05;11.80;75.00
782;DHT22;374;52.568;13.402;2023-05-19T01:25:07;11.70;75.10
782;DHT22;374;52.568;13.402;2023-05-19T01:30:54;11.80;75.20
782;DHT22;374;52.568;13.402;2023-05-19T01:33:21;11.70;75.20
782;DHT22;374;52.568;13.402;2023-05-19T01:35:48;11.70;75.20
782;DHT22;374;52.568;13.402;2023-05-19T01:38:15;11.70;75.40
782;DHT22;374;52.568;13.402;2023-05-19T01:40:42;11.70;75.50
782;DHT22;374;52.568;13.402;2023-05-19T01:43:10;11.60;75.50
782;DHT22;374;52.568;13.402;2023-05-19T01:45:37;11.60;75.60
782;DHT22;374;52.568;13.402;2023-05-19T01:48:03;11.60;75.90
782;DHT22;374;52.568;13.402;2023-05-19T01:50:30;11.60;76.20
782;DHT22;374;52.568;13.402;2023-05-19T01:52:56;11.50;75.90
782;DHT22;374;52.568;13.402;2023-05-19T01:55:22;11.50;75.90
782;DHT22;374;52.568;13.402;2023-05-19T02:00:58;11.50;76.10
782;DHT22;374;52.568;13.402;2023-05-19T02:06:18;11.50;76.30
782;DHT22;374;52.568;13.402;2023-05-19T02:12:04;11.40;76.40
782;DHT22;374;52.568;13.402;2023-05-19T02:15:03;11.30;76.30
782;DHT22;374;52.568;13.402;2023-05-19T02:17:31;11.30;76.70
782;DHT22;374;52.568;13.402;2023-05-19T02:19:57;11.30;76.70
782;DHT22;374;52.568;13.402;2023-05-19T02:22:23;11.20;76.60
782;DHT22;374;52.568;13.402;2023-05-19T02:24:48;11.20;76.90
782;DHT22;374;52.568;13.402;2023-05-19T02:27:16;11.10;77.10
782;DHT22;374;52.568;13.402;2023-05-19T02:29:41;11.10;77.20
782;DHT22;374;52.568;13.402;2023-05-19T02:32:07;11.10;77.30
782;DHT22;374;52.568;13.402;2023-05-19T02:34:32;11.10;77.40
782;DHT22;374;52.568;13.402;2023-05-19T02:36:58;11.10;77.60
782;DHT22;374;52.568;13.402;2023-05-19T02:39:23;11.10;77.70
782;DHT22;374;52.568;13.402;2023-05-19T02:41:49;11.00;77.70
782;DHT22;374;52.568;13.402;2023-05-19T02:44:14;11.00;77.50
782;DHT22;374;52.568;13.402;2023-05-19T02:46:40;11.00;78.00
782;DHT22;374;52.568;13.402;2023-05-19T02:49:05;11.00;77.90
782;DHT22;374;52.568;13.402;2023-05-19T02:51:31;11.00;78.20
782;DHT22;374;52.568;13.402;2023-05-19T02:53:56;11.00;78.10
782;DHT22;374;52.568;13.402;2023-05-19T02:56:22;11.00;78.10
782;DHT22;374;52.568;13.402;2023-05-19T02:58:47;11.00;78.20
782;DHT22;374;52.568;13.402;2023-05-19T03:01:13;11.00;78.40
782;DHT22;374;52.568;13.402;2023-05-19T03:03:38;11.00;78.40
782;DHT22;374;52.568;13.402;2023-05-19T03:06:04;11.00;78.60
782;DHT22;374;52.568;13.402;2023-05-19T03:08:33;11.00;78.70
782;DHT22;374;52.568;13.402;2023-05-19T03:10:59;10.90;79.50
782;DHT22;374;52.568;13.402;2023-05-19T03:13:24;11.00;78.90
782;DHT22;374;52.568;13.402;2023-05-19T03:15:50;11.00;79.10
782;DHT22;374;52.568;13.402;2023-05-19T03:18:15;11.00;79.10
782;DHT22;374;52.568;13.402;2023-05-19T03:20:41;11.00;79.00
782;DHT22;374;52.568;13.402;2023-05-19T03:23:09;10.90;79.00
782;DHT22;374;52.568;13.402;2023-05-19T03:25:34;11.00;79.20
782;DHT22;374;52.568;13.402;2023-05-19T03:28:00;10.90;79.20
782;DHT22;374;52.568;13.402;2023-05-19T03:30:25;10.90;79.40
782;DHT22;374;52.568;13.402;2023-05-19T03:32:51;10.90;79.40
782;DHT22;374;52.568;13.402;2023-05-19T03:35:17;10.90;79.70
782;DHT22;374;52.568;13.402;2023-05-19T03:37:42;10.90;79.80
782;DHT22;374;52.568;13.402;2023-05-19T03:40:08;10.90;80.00
782;DHT22;374;52.568;13.402;2023-05-19T03:42:34;10.90;80.30
782;DHT22;374;52.568;13.402;2023-05-19T03:45:00;10.80;80.20
782;DHT22;374;52.568;13.402;2023-05-19T03:47:25;10.90;80.60
782;DHT22;374;52.568;13.402;2023-05-19T03:49:51;10.90;80.50
782;DHT22;374;52.568;13.402;2023-05-19T03:52:16;10.90;81.40
782;DHT22;374;52.568;13.402;2023-05-19T03:54:42;10.80;80.70
782;DHT22;374;52.568;13.402;2023-05-19T03:57:08;10.90;81.00
782;DHT22;374;52.568;13.402;2023-05-19T03:59:35;10.90;80.90
782;DHT22;374;52.568;13.402;2023-05-19T04:02:01;10.90;80.90
782;DHT22;374;52.568;13.402;2023-05-19T04:04:27;10.90;81.00
782;DHT22;374;52.568;13.402;2023-05-19T04:06:53;10.90;81.10
782;DHT22;374;52.568;13.402;2023-05-19T04:09:20;10.90;81.20
782;DHT22;374;52.568;13.402;2023-05-19T04:11:46;10.90;81.30
782;DHT22;374;52.568;13.402;2023-05-19T04:14:12;10.90;81.40
782;DHT22;374;52.568;13.402;2023-05-19T04:16:37;10.90;81.70
782;DHT22;374;52.568;13.402;2023-05-19T04:19:03;10.90;81.70
782;DHT22;374;52.568;13.402;2023-05-19T04:21:28;10.90;81.70
782;DHT22;374;52.568;13.402;2023-05-19T04:23:54;10.90;82.00
782;DHT22;374;52.568;13.402;2023-05-19T04:26:19;10.80;81.60
782;DHT22;374;52.568;13.402;2023-05-19T04:28:47;10.70;81.70
782;DHT22;374;52.568;13.402;2023-05-19T04:31:15;10.80;82.20
782;DHT22;374;52.568;13.402;2023-05-19T04:33:40;10.70;82.10
782;DHT22;374;52.568;13.402;2023-05-19T04:36:07;10.80;82.30
782;DHT22;374;52.568;13.402;2023-05-19T04:38:35;10.80;82.30
782;DHT22;374;52.568;13.402;2023-05-19T04:41:01;10.90;82.10
782;DHT22;374;52.568;13.402;2023-05-19T04:43:27;10.80;82.20
782;DHT22;374;52.568;13.402;2023-05-19T04:45:53;10.80;82.30
782;DHT22;374;52.568;13.402;2023-05-19T04:48:19;10.80;82.50
782;DHT22;374;52.568;13.402;2023-05-19T04:50:46;10.80;82.70
782;DHT22;374;52.568;13.402;2023-05-19T04:53:13;10.80;82.90
782;DHT22;374;52.568;13.402;2023-05-19T04:55:39;10.90;82.90
782;DHT22;374;52.568;13.402;2023-05-19T04:58:04;10.90;82.90
782;DHT22;374;52.568;13.402;2023-05-19T05:00:30;10.70;83.20
782;DHT22;374;52.568;13.402;2023-05-19T05:02:56;10.70;83.50
782;DHT22;374;52.568;13.402;2023-05-19T05:05:22;10.60;84.10
782;DHT22;374;52.568;13.402;2023-05-19T05:07:48;10.70;84.30
782;DHT22;374;52.568;13.402;2023-05-19T05:10:14;10.70;84.20
782;DHT22;374;52.568;13.402;2023-05-19T05:12:39;10.70;84.30
782;DHT22;374;52.568;13.402;2023-05-19T05:15:05;10.80;84.70
782;DHT22;374;52.568;13.402;2023-05-19T05:17:33;10.70;84.70
782;DHT22;374;52.568;13.402;2023-05-19T05:20:00;10.80;85.10
782;DHT22;374;52.568;13.402;2023-05-19T05:22:26;10.80;85.00
782;DHT22;374;52.568;13.402;2023-05-19T05:24:52;10.80;85.20
782;DHT22;374;52.568;13.402;2023-05-19T05:27:17;10.90;85.50
782;DHT22;374;52.568;13.402;2023-05-19T05:29:43;10.90;85.30
782;DHT22;374;52.568;13.402;2023-05-19T05:32:08;10.90;85.30
782;DHT22;374;52.568;13.402;2023-05-19T05:34:34;11.00;85.50
782;DHT22;374;52.568;13.402;2023-05-19T05:37:02;11.00;85.50
782;DHT22;374;52.568;13.402;2023-05-19T05:39:27;11.00;85.50
782;DHT22;374;52.568;13.402;2023-05-19T05:41:53;11.00;85.70
782;DHT22;374;52.568;13.402;2023-05-19T05:44:18;11.00;86.00
782;DHT22;374;52.568;13.402;2023-05-19T05:46:44;11.10;86.20
782;DHT22;374;52.568;13.402;2023-05-19T05:49:10;11.10;86.20
782;DHT22;374;52.568;13.402;2023-05-19T05:51:37;11.20;86.40
782;DHT22;374;52.568;13.402;2023-05-19T05:54:05;11.20;86.20
782;DHT22;374;52.568;13.402;2023-05-19T05:56:31;11.20;86.60
782;DHT22;374;52.568;13.402;2023-05-19T05:58:58;11.30;86.40
782;DHT22;374;52.568;13.402;2023-05-19T06:01:23;11.40;86.70
782;DHT22;374;52.568;13.402;2023-05-19T06:03:49;11.40;86.30
782;DHT22;374;52.568;13.402;2023-05-19T06:06:15;11.40;87.20
782;DHT22;374;52.568;13.402;2023-05-19T06:08:40;11.50;86.80
782;DHT22;374;52.568;13.402;2023-05-19T06:11:06;11.60;87.60
782;DHT22;374;52.568;13.402;2023-05-19T06:13:37;11.60;86.90
782;DHT22;374;52.568;13.402;2023-05-19T06:16:03;11.60;86.60
782;DHT22;374;52.568;13.402;2023-05-19T06:18:29;11.80;87.10
782;DHT22;374;52.568;13.402;2023-05-19T06:20:54;11.90;87.10
782;DHT22;374;52.568;13.402;2023-05-19T06:23:20;12.10;87.10
782;DHT22;374;52.568;13.402;2023-05-19T06:25:46;12.20;86.30
782;DHT22;374;52.568;13.402;2023-05-19T06:28:11;12.40;86.30
782;DHT22;374;52.568;13.402;2023-05-19T06:30:37;12.60;86.30
782;DHT22;374;52.568;13.402;2023-05-19T06:33:02;12.70;85.70
782;DHT22;374;52.568;13.402;2023-05-19T06:35:29;12.80;85.50
782;DHT22;374;52.568;13.402;2023-05-19T06:37:54;12.90;85.10
782;DHT22;374;52.568;13.402;2023-05-19T06:40:21;13.00;84.40
782;DHT22;374;52.568;13.402;2023-05-19T06:42:47;13.10;84.60
782;DHT22;374;52.568;13.402;2023-05-19T06:45:15;13.10;84.40
782;DHT22;374;52.568;13.402;2023-05-19T06:47:40;13.20;83.70
782;DHT22;374;52.568;13.402;2023-05-19T06:50:07;13.30;84.20
782;DHT22;374;52.568;13.402;2023-05-19T06:52:33;13.40;83.70
782;DHT22;374;52.568;13.402;2023-05-19T06:54:59;13.50;83.90
782;DHT22;374;52.568;13.402;2023-05-19T06:57:25;13.60;83.10
782;DHT22;374;52.568;13.402;2023-05-19T06:59:50;13.60;82.50
782;DHT22;374;52.568;13.402;2023-05-19T07:02:16;13.60;82.60
782;DHT22;374;52.568;13.402;2023-05-19T07:04:41;13.60;82.70
782;DHT22;374;52.568;13.402;2023-05-19T07:07:07;13.80;83.30
782;DHT22;374;52.568;13.402;2023-05-19T07:09:33;13.90;83.40
782;DHT22;374;52.568;13.402;2023-05-19T07:11:58;14.10;83.40
782;DHT22;374;52.568;13.402;2023-05-19T07:14:24;14.20;82.80
782;DHT22;374;52.568;13.402;2023-05-19T07:16:49;14.30;82.50
782;DHT22;374;52.568;13.402;2023-05-19T07:19:15;14.40;82.10
782;DHT22;374;52.568;13.402;2023-05-19T07:21:40;14.40;81.70
782;DHT22;374;52.568;13.402;2023-05-19T07:24:06;14.50;82.20
782;DHT22;374;52.568;13.402;2023-05-19T07:26:32;14.50;81.80
782;DHT22;374;52.568;13.402;2023-05-19T07:28:57;14.80;82.30
782;DHT22;374;52.568;13.402;2023-05-19T07:31:23;14.80;80.70
782;DHT22;374;52.568;13.402;2023-05-19T07:33:49;15.00;81.40
782;DHT22;374;52.568;13.402;2023-05-19T07:36:14;15.20;80.70
782;DHT22;374;52.568;13.402;2023-05-19T07:38:40;15.50;79.00
782;DHT22;374;52.568;13.402;2023-05-19T07:41:06;15.40;78.20
782;DHT22;374;52.568;13.402;2023-05-19T07:43:31;15.40;77.50
782;DHT22;374;52.568;13.402;2023-05-19T07:45:57;15.50;77.90
782;DHT22;374;52.568;13.402;2023-05-19T07:48:22;15.70;77.00
782;DHT22;374;52.568;13.402;2023-05-19T07:50:50;15.90;76.50
782;DHT22;374;52.568;13.402;2023-05-19T07:53:16;16.00;75.30
782;DHT22;374;52.568;13.402;2023-05-19T07:55:42;16.10;74.90
782;DHT22;374;52.568;13.402;2023-05-19T07:58:07;16.20;75.20
782;DHT22;374;52.568;13.402;2023-05-19T08:00:33;16.30;74.10
782;DHT22;374;52.568;13.402;2023-05-19T08:02:58;16.40;73.80
782;DHT22;374;52.568;13.402;2023-05-19T08:05:24;16.30;73.80
782;DHT22;374;52.568;13.402;2023-05-19T08:07:50;16.40;74.20
782;DHT22;374;52.568;13.402;2023-05-19T08:10:16;16.50;74.50
782;DHT22;374;52.568;13.402;2023-05-19T08:12:41;16.80;73.70
782;DHT22;374;52.568;13.402;2023-05-19T08:15:08;17.20;74.10
782;DHT22;374;52.568;13.402;2023-05-19T08:17:36;17.30;71.70
782;DHT22;374;52.568;13.402;2023-05-19T08:20:01;17.50;70.60
782;DHT22;374;52.568;13.402;2023-05-19T08:22:28;17.70;70.40
782;DHT22;374;52.568;13.402;2023-05-19T08:24:53;17.80;70.40
782;DHT22;374;52.568;13.402;2023-05-19T08:27:19;17.90;68.60
782;DHT22;374;52.568;13.402;2023-05-19T08:29:45;17.90;67.60
782;DHT22;374;52.568;13.402;2023-05-19T08:32:10;18.00;67.10
782;DHT22;374;52.568;13.402;2023-05-19T08:34:36;18.20;67.50
782;DHT22;374;52.568;13.402;2023-05-19T08:37:01;18.50;67.50
782;DHT22;374;52.568;13.402;2023-05-19T08:39:27;18.80;66.80
782;DHT22;374;52.568;13.402;2023-05-19T08:41:53;19.00;65.50
782;DHT22;374;52.568;13.402;2023-05-19T08:44:19;19.10;64.00
782;DHT22;374;52.568;13.402;2023-05-19T08:46:46;19.10;61.50
782;DHT22;374;52.568;13.402;2023-05-19T08:49:13;19.10;62.20
782;DHT22;374;52.568;13.402;2023-05-19T08:57:59;19.20;60.00
782;DHT22;374;52.568;13.402;2023-05-19T09:00:26;19.40;58.70
782;DHT22;374;52.568;13.402;2023-05-19T09:02:52;19.20;58.40
782;DHT22;374;52.568;13.402;2023-05-19T09:05:19;19.00;57.70
782;DHT22;374;52.568;13.402;2023-05-19T09:07:45;19.10;58.30
782;DHT22;374;52.568;13.402;2023-05-19T09:10:11;19.20;58.20
782;DHT22;374;52.568;13.402;2023-05-19T09:12:42;19.40;58.20
782;DHT22;374;52.568;13.402;2023-05-19T09:15:10;19.50;57.60
782;DHT22;374;52.568;13.402;2023-05-19T09:17:37;19.50;57.80
782;DHT22;374;52.568;13.402;2023-05-19T09:20:04;19.60;57.70
782;DHT22;374;52.568;13.402;2023-05-19T09:22:40;19.80;57.10
782;DHT22;374;52.568;13.402;2023-05-19T09:25:16;20.00;56.90
782;DHT22;374;52.568;13.402;2023-05-19T09:27:41;20.10;56.70
782;DHT22;374;52.568;13.402;2023-05-19T09:30:07;20.50;55.40
782;DHT22;374;52.568;13.402;2023-05-19T09:32:34;20.40;54.80
782;DHT22;374;52.568;13.402;2023-05-19T09:35:01;20.60;54.90
782;DHT22;374;52.568;13.402;2023-05-19T09:37:27;20.60;54.50
782;DHT22;374;52.568;13.402;2023-05-19T09:39:53;20.90;53.70
782;DHT22;374;52.568;13.402;2023-05-19T09:42:25;20.60;53.30
782;DHT22;374;52.568;13.402;2023-05-19T09:45:01;20.20;52.80
782;DHT22;374;52.568;13.402;2023-05-19T09:47:40;19.80;53.30
782;DHT22;374;52.568;13.402;2023-05-19T09:50:08;19.70;54.20
782;DHT22;374;52.568;13.402;2023-05-19T09:52:35;19.70;54.50
782;DHT22;374;52.568;13.402;2023-05-19T09:55:01;19.50;54.60
782;DHT22;374;52.568;13.402;2023-05-19T09:57:32;19.70;55.10
782;DHT22;374;52.568;13.402;2023-05-19T10:00:03;20.30;54.50
782;DHT22;374;52.568;13.402;2023-05-19T10:02:42;20.90;52.90
782;DHT22;374;52.568;13.402;2023-05-19T10:05:13;21.10;52.70
782;DHT22;374;52.568;13.402;2023-05-19T10:07:49;21.00;52.40
782;DHT22;374;52.568;13.402;2023-05-19T10:10:16;21.20;53.00
782;DHT22;374;52.568;13.402;2023-05-19T10:12:44;21.70;52.70
782;DHT22;374;52.568;13.402;2023-05-19T10:15:12;22.00;52.30
782;DHT22;374;52.568;13.402;2023-05-19T10:17:40;21.90;51.10
782;DHT22;374;52.568;13.402;2023-05-19T10:20:15;21.30;50.80
782;DHT22;374;52.568;13.402;2023-05-19T10:22:43;20.60;51.50
782;DHT22;374;52.568;13.402;2023-05-19T10:25:10;20.50;52.50
782;DHT22;374;52.568;13.402;2023-05-19T10:27:41;20.50;52.90
782;DHT22;374;52.568;13.402;2023-05-19T10:30:20;20.20;52.60
782;DHT22;374;52.568;13.402;2023-05-19T10:32:47;20.00;52.60
782;DHT22;374;52.568;13.402;2023-05-19T10:43:53;19.40;53.30
782;DHT22;374;52.568;13.402;2023-05-19T10:46:25;19.30;53.10
782;DHT22;374;52.568;13.402;2023-05-19T10:48:53;19.30;53.80
782;DHT22;374;52.568;13.402;2023-05-19T10:51:18;19.20;53.00
782;DHT22;374;52.568;13.402;2023-05-19T10:53:44;19.00;53.50
782;DHT22;374;52.568;13.402;2023-05-19T10:56:28;19.00;54.20
782;DHT22;374;52.568;13.402;2023-05-19T10:59:01;18.80;54.40
782;DHT22;374;52.568;13.402;2023-05-19T11:01:34;18.80;54.80
782;DHT22;374;52.568;13.402;2023-05-19T11:04:05;18.70;54.80
782;DHT22;374;52.568;13.402;2023-05-19T11:06:32;18.70;55.00
782;DHT22;374;52.568;13.402;2023-05-19T11:09:12;18.70;54.60
782;DHT22;374;52.568;13.402;2023-05-19T11:11:48;18.50;54.60
782;DHT22;374;52.568;13.402;2023-05-19T11:14:17;18.50;54.80
782;DHT22;374;52.568;13.402;2023-05-19T11:16:46;18.50;54.80
782;DHT22;374;52.568;13.402;2023-05-19T11:19:30;18.60;55.00
782;DHT22;374;52.568;13.402;2023-05-19T11:24:45;18.60;55.00
782;DHT22;374;52.568;13.402;2023-05-19T11:27:27;18.70;55.40
782;DHT22;374;52.568;13.402;2023-05-19T11:30:00;18.70;54.90
782;DHT22;374;52.568;13.402;2023-05-19T11:32:31;18.70;54.60
782;DHT22;374;52.568;13.402;2023-05-19T11:34:58;18.60;54.60
782;DHT22;374;52.568;13.402;2023-05-19T11:37:24;18.70;55.00
782;DHT22;374;52.568;13.402;2023-05-19T11:39:51;18.60;53.80
782;DHT22;374;52.568;13.402;2023-05-19T11:42:17;18.60;54.30
782;DHT22;374;52.568;13.402;2023-05-19T11:44:44;18.60;54.40
782;DHT22;374;52.568;13.402;2023-05-19T11:47:13;18.60;55.00
782;DHT22;374;52.568;13.402;2023-05-19T11:49:43;18.60;55.00
782;DHT22;374;52.568;13.402;2023-05-19T11:52:10;18.60;54.60
782;DHT22;374;52.568;13.402;2023-05-19T11:54:36;18.70;54.90
782;DHT22;374;52.568;13.402;2023-05-19T11:57:02;18.70;54.80
782;DHT22;374;52.568;13.402;2023-05-19T11:59:31;18.70;54.30
782;DHT22;374;52.568;13.402;2023-05-19T12:02:00;18.60;54.30
782;DHT22;374;52.568;13.402;2023-05-19T12:04:27;18.60;54.80
782;DHT22;374;52.568;13.402;2023-05-19T12:06:53;18.60;54.70
782;DHT22;374;52.568;13.402;2023-05-19T12:09:21;18.60;54.10
782;DHT22;374;52.568;13.402;2023-05-19T12:11:46;18.60;54.60
782;DHT22;374;52.568;13.402;2023-05-19T12:14:12;18.60;54.90
782;DHT22;374;52.568;13.402;2023-05-19T12:16:37;18.60;54.60
782;DHT22;374;52.568;13.402;2023-05-19T12:19:06;18.70;54.50
782;DHT22;374;52.568;13.402;2023-05-19T12:21:31;18.70;54.20
782;DHT22;374;52.568;13.402;2023-05-19T12:23:58;18.80;54.90
782;DHT22;374;52.568;13.402;2023-05-19T12:26:24;18.80;54.30
782;DHT22;374;52.568;13.402;2023-05-19T12:28:50;18.80;54.20
782;DHT22;374;52.568;13.402;2023-05-19T12:31:17;18.70;52.70
782;DHT22;374;52.568;13.402;2023-05-19T12:33:43;18.70;52.90
782;DHT22;374;52.568;13.402;2023-05-19T12:36:11;18.70;53.30
782;DHT22;374;52.568;13.402;2023-05-19T12:38:37;18.70;53.70
782;DHT22;374;52.568;13.402;2023-05-19T12:41:04;18.80;53.90
782;DHT22;374;52.568;13.402;2023-05-19T12:43:31;18.80;53.40
782;DHT22;374;52.568;13.402;2023-05-19T12:45:57;18.80;53.30
782;DHT22;374;52.568;13.402;2023-05-19T12:48:23;18.70;53.00
782;DHT22;374;52.568;13.402;2023-05-19T12:50:51;18.70;53.40
782;DHT22;374;52.568;13.402;2023-05-19T12:53:18;18.70;53.50
782;DHT22;374;52.568;13.402;2023-05-19T12:55:44;18.60;53.70
782;DHT22;374;52.568;13.402;2023-05-19T12:58:10;18.60;54.10
782;DHT22;374;52.568;13.402;2023-05-19T13:00:41;18.60;54.40
782;DHT22;374;52.568;13.402;2023-05-19T13:03:13;18.60;54.20
782;DHT22;374;52.568;13.402;2023-05-19T13:05:41;18.60;53.90
782;DHT22;374;52.568;13.402;2023-05-19T13:08:18;18.50;53.80
782;DHT22;374;52.568;13.402;2023-05-19T13:10:45;18.50;53.90
782;DHT22;374;52.568;13.402;2023-05-19T13:13:11;18.50;54.00
782;DHT22;374;52.568;13.402;2023-05-19T13:15:41;18.60;54.20
782;DHT22;374;52.568;13.402;2023-05-19T13:18:09;18.60;54.40
782;DHT22;374;52.568;13.402;2023-05-19T13:20:35;18.60;54.60
782;DHT22;374;52.568;13.402;2023-05-19T13:23:01;18.50;54.10
782;DHT22;374;52.568;13.402;2023-05-19T13:25:26;18.50;54.60
782;DHT22;374;52.568;13.402;2023-05-19T13:27:53;18.60;54.70
782;DHT22;374;52.568;13.402;2023-05-19T13:30:19;18.50;54.60
782;DHT22;374;52.568;13.402;2023-05-19T13:32:45;18.60;54.70
782;DHT22;374;52.568;13.402;2023-05-19T13:35:11;18.60;54.90
782;DHT22;374;52.568;13.402;2023-05-19T13:37:37;18.50;55.00
782;DHT22;374;52.568;13.402;2023-05-19T13:40:04;18.60;55.20
782;DHT22;374;52.568;13.402;2023-05-19T13:42:31;18.50;55.30
782;DHT22;374;52.568;13.402;2023-05-19T13:44:57;18.50;55.50
782;DHT22;374;52.568;13.402;2023-05-19T13:47:23;18.50;55.60
782;DHT22;374;52.568;13.402;2023-05-19T13:49:48;18.50;55.80
782;DHT22;374;52.568;13.402;2023-05-19T13:52:14;18.50;55.50
782;DHT22;374;52.568;13.402;2023-05-19T13:54:40;18.50;55.80
782;DHT22;374;52.568;13.402;2023-05-19T13:57:05;18.50;55.90
782;DHT22;374;52.568;13.402;2023-05-19T13:59:31;18.40;55.50
782;DHT22;374;52.568;13.402;2023-05-19T14:01:57;18.40;55.70
782;DHT22;374;52.568;13.402;2023-05-19T14:04:22;18.40;55.90
782;DHT22;374;52.568;13.402;2023-05-19T14:06:48;18.40;56.20
782;DHT22;374;52.568;13.402;2023-05-19T14:09:14;18.40;56.10
782;DHT22;374;52.568;13.402;2023-05-19T14:11:40;18.40;56.40
782;DHT22;374;52.568;13.402;2023-05-19T14:14:06;18.40;56.60
782;DHT22;374;52.568;13.402;2023-05-19T14:16:32;18.40;56.70
782;DHT22;374;52.568;13.402;2023-05-19T14:18:57;18.30;56.70
782;DHT22;374;52.568;13.402;2023-05-19T14:21:23;18.20;56.60
782;DHT22;374;52.568;13.402;2023-05-19T14:23:48;18.20;56.90
782;DHT22;374;52.568;13.402;2023-05-19T14:26:14;18.10;57.20
782;DHT22;374;52.568;13.402;2023-05-19T14:28:40;18.10;57.20
782;DHT22;374;52.568;13.402;2023-05-19T14:31:10;18.20;57.40
782;DHT22;374;52.568;13.402;2023-05-19T14:33:36;18.20;57.40
782;DHT22;374;52.568;13.402;2023-05-19T14:36:02;18.20;57.20
782;DHT22;374;52.568;13.402;2023-05-19T14:38:29;18.20;57.30
782;DHT22;374;52.568;13.402;2023-05-19T14:40:55;18.30;57.40
782;DHT22;374;52.568;13.402;2023-05-19T14:43:20;18.30;57.60
782;DHT22;374;52.568;13.402;2023-05-19T14:45:49;18.40;57.30
782;DHT22;374;52.568;13.402;2023-05-19T14:48:14;18.50;57.50
782;DHT22;374;52.568;13.402;2023-05-19T14:50:40;18.50;57.60
782;DHT22;374;52.568;13.402;2023-05-19T14:53:08;18.50;57.40
782;DHT22;374;52.568;13.402;2023-05-19T14:55:35;18.50;57.50
782;DHT22;374;52.568;13.402;2023-05-19T14:58:01;18.50;57.40
782;DHT22;374;52.568;13.402;2023-05-19T15:00:29;18.50;57.10
782;DHT22;374;52.568;13.402;2023-05-19T15:02:54;18.50;57.20
782;DHT22;374;52.568;13.402;2023-05-19T15:05:23;18.40;57.00
782;DHT22;374;52.568;13.402;2023-05-19T15:07:56;18.40;57.20
782;DHT22;374;52.568;13.402;2023-05-19T15:10:23;18.40;57.30
782;DHT22;374;52.568;13.402;2023-05-19T15:12:50;18.40;56.90
782;DHT22;374;52.568;13.402;2023-05-19T15:15:20;18.40;56.70
782;DHT22;374;52.568;13.402;2023-05-19T15:17:46;18.30;56.10
782;DHT22;374;52.568;13.402;2023-05-19T15:20:14;18.10;56.20
782;DHT22;374;52.568;13.402;2023-05-19T15:22:40;18.20;56.40
782;DHT22;374;52.568;13.402;2023-05-19T15:25:06;18.20;56.40
782;DHT22;374;52.568;13.402;2023-05-19T15:27:33;18.10;56.70
782;DHT22;374;52.568;13.402;2023-05-19T15:29:59;18.10;57.20
782;DHT22;374;52.568;13.402;2023-05-19T15:32:25;18.10;56.60
782;DHT22;374;52.568;13.402;2023-05-19T15:34:50;18.10;56.70
782;DHT22;374;52.568;13.402;2023-05-19T15:37:16;18.00;57.00
782;DHT22;374;52.568;13.402;2023-05-19T15:39:41;18.00;57.00
782;DHT22;374;52.568;13.402;2023-05-19T15:42:07;18.00;57.00
782;DHT22;374;52.568;13.402;2023-05-19T15:44:32;17.90;57.30
782;DHT22;374;52.568;13.402;2023-05-19T15:46:58;17.90;56.90
782;DHT22;374;52.568;13.402;2023-05-19T15:49:23;17.90;57.00
782;DHT22;374;52.568;13.402;2023-05-19T15:51:49;17.90;57.40
782;DHT22;374;52.568;13.402;2023-05-19T15:54:15;17.90;57.20
782;DHT22;374;52.568;13.402;2023-05-19T15:56:40;17.90;57.10
782;DHT22;374;52.568;13.402;2023-05-19T15:59:05;17.90;57.40
782;DHT22;374;52.568;13.402;2023-05-19T16:01:31;17.90;57.70
782;DHT22;374;52.568;13.402;2023-05-19T16:03:56;17.90;57.80
782;DHT22;374;52.568;13.402;2023-05-19T16:06:22;18.00;58.00
782;DHT22;374;52.568;13.402;2023-05-19T16:08:48;18.00;58.30
782;DHT22;374;52.568;13.402;2023-05-19T16:11:14;18.00;57.80
782;DHT22;374;52.568;13.402;2023-05-19T16:13:39;18.00;57.90
782;DHT22;374;52.568;13.402;2023-05-19T16:16:05;18.00;57.70
782;DHT22;374;52.568;13.402;2023-05-19T16:18:31;17.90;57.50
782;DHT22;374;52.568;13.402;2023-05-19T16:20:56;17.90;57.30
782;DHT22;374;52.568;13.402;2023-05-19T16:23:22;17.90;57.40
782;DHT22;374;52.568;13.402;2023-05-19T16:25:49;17.80;57.40
782;DHT22;374;52.568;13.402;2023-05-19T16:28:14;17.80;57.50
782;DHT22;374;52.568;13.402;2023-05-19T16:30:40;17.80;57.50
782;DHT22;374;52.568;13.402;2023-05-19T16:33:05;17.80;57.60
782;DHT22;374;52.568;13.402;2023-05-19T16:35:31;17.70;57.90
782;DHT22;374;52.568;13.402;2023-05-19T16:37:56;17.70;57.70
782;DHT22;374;52.568;13.402;2023-05-19T16:40:22;17.60;57.90
782;DHT22;374;52.568;13.402;2023-05-19T16:42:48;17.60;57.80
782;DHT22;374;52.568;13.402;2023-05-19T16:45:13;17.60;57.80
782;DHT22;374;52.568;13.402;2023-05-19T16:47:41;17.60;58.00